Time;durP1;ratioP1;P1;durP2;ratioP2;P2;SDS_P1;SDS_P2;PMS_P1;PMS_P2;Temp;Humidity;BMP_temperature;BMP_pressure;BME280_temperature;BME280_humidity;BME280_pressure;Samples;Min_cycle;Max_cycle;Signal;HPM_P1;HPM_P2
2021/08/01 05:37:01;;;;;;;3.97;3.03;;;;;;;17.37;99.37;98014.53;4953448;22;103670;-61
2021/08/01 05:39:32;;;;;;;4.05;3.05;;;;;;;17.41;99.17;98012.38;4933625;28;103388;-58
2021/08/01 05:42:01;;;;;;;3.72;3.42;;;;;;;17.33;99.42;98007.06;4939449;28;102654;-60
2021/08/01 05:44:33;;;;;;;4.47;3.42;;;;;;;17.44;98.48;98011.19;4910940;28;102684;-60
2021/08/01 05:47:06;;;;;;;2.85;2.60;;;;;;;17.53;97.93;98011.03;4944558;28;104391;-61
2021/08/01 05:49:35;;;;;;;4.75;3.55;;;;;;;17.51;97.52;98013.03;4941226;28;103120;-61
2021/08/01 05:52:05;;;;;;;4.13;3.30;;;;;;;17.65;97.84;98012.38;4941355;28;103976;-61
2021/08/01 05:54:33;;;;;;;5.28;4.20;;;;;;;17.54;96.31;98012.72;4941242;28;102951;-60
2021/08/01 05:57:01;;;;;;;3.30;3.00;;;;;;;17.64;97.41;98009.84;4939570;28;103555;-59
2021/08/01 05:59:30;;;;;;;4.15;3.58;;;;;;;17.69;96.19;98012.84;4939595;28;103176;-62
2021/08/01 06:01:58;;;;;;;3.45;2.67;;;;;;;17.81;95.86;98006.13;4938112;28;102606;-61
2021/08/01 06:04:26;;;;;;;2.75;2.53;;;;;;;17.91;96.31;98014.75;4922735;28;102675;-60
2021/08/01 06:06:54;;;;;;;3.05;2.75;;;;;;;18.02;96.26;98010.91;4923574;28;103203;-60
2021/08/01 06:09:23;;;;;;;2.92;2.47;;;;;;;18.12;95.52;98017.69;4922046;28;105557;-58
2021/08/01 06:11:52;;;;;;;2.60;2.40;;;;;;;18.16;95.47;98016.31;4938683;28;103409;-59
2021/08/01 06:14:20;;;;;;;4.05;3.30;;;;;;;18.06;95.66;98020.22;4940034;28;102749;-60
2021/08/01 06:16:48;;;;;;;4.65;3.80;;;;;;;17.92;95.95;98014.59;4939123;28;103386;-59
2021/08/01 06:19:17;;;;;;;3.28;2.70;;;;;;;17.98;96.67;98028.28;4922309;28;103152;-63
2021/08/01 06:21:45;;;;;;;2.90;2.70;;;;;;;18.12;96.14;98027.53;4939701;28;102943;-61
2021/08/01 06:24:13;;;;;;;4.32;3.92;;;;;;;18.02;95.94;98029.59;4939196;28;102726;-60
2021/08/01 06:26:43;;;;;;;3.45;3.10;;;;;;;18.16;94.97;98031.53;4937846;28;103631;-59
2021/08/01 06:29:11;;;;;;;3.90;3.50;;;;;;;18.10;96.53;98030.41;4938471;28;103201;-63
2021/08/01 06:31:39;;;;;;;4.28;3.83;;;;;;;18.13;96.19;98031.88;4941106;28;102680;-63
2021/08/01 06:34:08;;;;;;;3.30;3.05;;;;;;;18.31;96.12;98035.97;4940846;28;103217;-62
2021/08/01 06:36:36;;;;;;;3.60;3.10;;;;;;;18.32;94.65;98042.16;4920468;28;103884;-63
2021/08/01 06:39:04;;;;;;;4.68;3.00;;;;;;;18.50;95.40;98046.25;4939577;28;103194;-62
2021/08/01 06:41:32;;;;;;;4.20;3.72;;;;;;;18.53;94.16;98055.75;4942752;28;102611;-59
2021/08/01 06:44:01;;;;;;;3.28;2.97;;;;;;;18.33;94.35;98055.31;4942160;28;102662;-59
2021/08/01 06:46:30;;;;;;;4.72;3.88;;;;;;;18.30;96.16;98057.53;4941901;28;103386;-63
2021/08/01 06:48:58;;;;;;;3.83;3.33;;;;;;;18.49;95.27;98059.81;4926351;28;104187;-59
2021/08/01 06:51:26;;;;;;;3.13;2.88;;;;;;;18.69;95.39;98060.19;4940541;28;102652;-60
2021/08/01 06:53:54;;;;;;;3.72;3.08;;;;;;;18.79;93.19;98050.91;4941728;28;102640;-60
2021/08/01 06:56:22;;;;;;;4.10;2.97;;;;;;;18.42;94.52;98053.44;4942211;28;103460;-62
2021/08/01 06:58:50;;;;;;;5.03;3.30;;;;;;;18.75;94.42;98060.28;4941844;28;103237;-61
2021/08/01 07:01:20;;;;;;;3.03;2.72;;;;;;;18.93;93.28;98060.84;4924741;28;102775;-64
2021/08/01 07:03:48;;;;;;;3.67;3.00;;;;;;;19.02;91.62;98066.97;4941562;28;102602;-63
2021/08/01 07:06:16;;;;;;;2.60;2.35;;;;;;;19.12;90.37;98067.56;4924113;28;103952;-61
2021/08/01 07:08:45;;;;;;;2.60;2.40;;;;;;;19.15;90.42;98069.03;4943283;28;103027;-62
2021/08/01 07:11:13;;;;;;;2.75;2.55;;;;;;;19.00;88.72;98072.50;4927802;28;102625;-59
2021/08/01 07:13:42;;;;;;;3.15;2.85;;;;;;;18.89;90.11;98072.91;4946043;28;102676;-63
2021/08/01 07:16:10;;;;;;;2.85;2.65;;;;;;;18.91;89.84;98078.94;4918384;28;105682;-65
2021/08/01 07:18:40;;;;;;;5.85;3.53;;;;;;;18.93;90.54;98079.59;4935672;28;103350;-60
2021/08/01 07:21:08;;;;;;;4.90;3.00;;;;;;;18.65;91.51;98085.63;4939818;28;102662;-61
2021/08/01 07:23:37;;;;;;;3.75;2.83;;;;;;;18.70;91.60;98084.09;4924758;28;102804;-60
2021/08/01 07:26:05;;;;;;;4.50;2.58;;;;;;;18.75;91.49;98081.69;4940063;28;103853;-63
2021/08/01 07:28:35;;;;;;;2.70;2.50;;;;;;;18.67;92.61;98087.09;4939588;28;104214;-63
2021/08/01 07:31:03;;;;;;;2.70;2.50;;;;;;;18.63;94.00;98082.28;4938181;28;103830;-64
2021/08/01 07:33:32;;;;;;;2.72;2.53;;;;;;;18.69;92.82;98087.78;4940483;28;102808;-58
2021/08/01 07:36:03;;;;;;;4.03;2.65;;;;;;;18.63;91.85;98088.47;4939489;28;103351;-62
2021/08/01 07:38:31;;;;;;;2.90;2.70;;;;;;;18.57;91.20;98088.34;4931173;28;103663;-63
2021/08/01 07:40:59;;;;;;;3.00;2.80;;;;;;;18.60;89.20;98094.19;4939294;28;102971;-64
2021/08/01 07:43:27;;;;;;;5.70;3.50;;;;;;;18.78;89.35;98089.38;4906996;28;102752;-63
2021/08/01 07:45:55;;;;;;;2.90;2.70;;;;;;;18.82;90.06;98095.22;4938947;28;103393;-63
2021/08/01 07:48:24;;;;;;;2.88;2.60;;;;;;;18.87;89.94;98091.00;4938145;28;103155;-63
2021/08/01 07:50:52;;;;;;;2.60;2.40;;;;;;;18.99;90.15;98084.22;4938698;28;103249;-63
2021/08/01 07:53:21;;;;;;;3.95;2.75;;;;;;;19.02;89.73;98094.59;4939341;28;102727;-61
2021/08/01 07:55:49;;;;;;;4.70;3.55;;;;;;;18.77;90.63;98093.09;4938787;28;103726;-60
2021/08/01 07:58:17;;;;;;;3.35;2.97;;;;;;;18.83;90.80;98095.06;4942996;28;103193;-59
2021/08/01 08:00:46;;;;;;;3.85;3.45;;;;;;;18.87;90.26;98091.00;4939282;28;103140;-62
2021/08/01 08:03:14;;;;;;;3.67;3.03;;;;;;;19.00;89.18;98093.91;4921971;28;103940;-64
2021/08/01 08:05:42;;;;;;;4.97;3.10;;;;;;;18.90;88.98;98087.13;4922441;28;103285;-63
2021/08/01 08:08:10;;;;;;;3.63;3.33;;;;;;;18.76;89.91;98095.91;4941727;28;103164;-64
2021/08/01 08:10:40;;;;;;;3.35;3.05;;;;;;;18.88;89.57;98098.03;4938424;28;102977;-64
2021/08/01 08:13:08;;;;;;;3.78;3.38;;;;;;;18.90;89.20;98096.00;4940964;28;102838;-61
2021/08/01 08:15:39;;;;;;;4.20;2.85;;;;;;;19.01;89.09;98092.91;4938872;28;104276;-63
2021/08/01 08:18:07;;;;;;;3.30;3.00;;;;;;;19.24;89.20;98097.41;4940679;28;103479;-60
2021/08/01 08:20:35;;;;;;;3.10;2.80;;;;;;;19.25;89.02;98091.91;4939966;28;102547;-60
2021/08/01 08:23:03;;;;;;;3.55;3.00;;;;;;;19.04;88.58;98095.22;4941193;28;102727;-64
2021/08/01 08:25:31;;;;;;;5.00;2.90;;;;;;;19.14;89.69;98096.84;4920232;28;104336;-64
2021/08/01 08:28:02;;;;;;;4.60;3.28;;;;;;;19.17;87.30;98097.31;4921329;28;103364;-64
2021/08/01 08:30:30;;;;;;;3.92;2.88;;;;;;;19.39;87.89;98093.81;4937866;28;102636;-59
2021/08/01 08:32:58;;;;;;;5.25;3.50;;;;;;;19.29;87.49;98100.38;4923271;28;102651;-60
2021/08/01 08:35:27;;;;;;;3.15;2.85;;;;;;;19.08;86.78;98087.69;4939386;28;104432;-59
2021/08/01 08:37:55;;;;;;;4.30;2.85;;;;;;;19.33;87.31;98102.53;4937721;28;103670;-63
2021/08/01 08:40:23;;;;;;;2.97;2.67;;;;;;;19.62;86.17;98101.81;4939560;28;102669;-63
2021/08/01 08:42:52;;;;;;;4.32;2.80;;;;;;;19.70;85.60;98100.91;4939091;28;102848;-63
2021/08/01 08:45:21;;;;;;;3.58;2.78;;;;;;;19.82;84.93;98108.31;4942286;28;103484;-60
2021/08/01 08:47:50;;;;;;;2.50;2.30;;;;;;;19.80;83.76;98110.34;4941934;28;103386;-60
2021/08/01 08:50:22;;;;;;;3.58;3.03;;;;;;;19.67;84.83;98104.78;4925766;28;102750;-60
2021/08/01 08:52:59;;;;;;;4.57;2.92;;;;;;;19.78;85.39;98112.38;4942361;28;102651;-60
2021/08/01 08:55:29;;;;;;;4.00;2.60;;;;;;;19.99;83.72;98109.78;4940318;28;103425;-64
2021/08/01 08:58:02;;;;;;;3.00;2.35;;;;;;;20.02;83.01;98120.16;4939148;28;103346;-64
2021/08/01 09:00:33;;;;;;;2.33;2.13;;;;;;;19.98;82.46;98118.88;4923257;28;102661;-64
2021/08/01 09:03:01;;;;;;;2.30;2.20;;;;;;;20.19;81.80;98118.97;4942712;28;102709;-60
2021/08/01 09:05:31;;;;;;;2.63;2.03;;;;;;;20.33;81.21;98125.38;4944109;28;103302;-60
2021/08/01 09:07:59;;;;;;;2.72;2.30;;;;;;;20.31;80.59;98129.25;4924186;28;103100;-63
2021/08/01 09:10:30;;;;;;;5.30;3.25;;;;;;;20.31;81.66;98129.25;4944321;28;102917;-63
2021/08/01 09:12:58;;;;;;;3.10;2.70;;;;;;;20.40;81.22;98125.47;4942064;28;102573;-59
2021/08/01 09:15:28;;;;;;;3.25;2.95;;;;;;;20.42;80.62;98131.47;4942121;28;103320;-61
2021/08/01 09:17:59;;;;;;;2.90;2.70;;;;;;;20.55;79.36;98139.69;4924328;28;105838;-59
2021/08/01 09:20:29;;;;;;;3.65;2.55;;;;;;;20.52;78.27;98129.34;4940747;28;102619;-59
2021/08/01 09:23:12;;;;;;;2.42;2.15;;;;;;;20.68;78.88;98126.44;4941547;28;102682;-64
2021/08/01 09:25:42;;;;;;;4.03;3.00;;;;;;;20.43;79.62;98127.78;4940206;28;103209;-64
2021/08/01 09:28:15;;;;;;;4.82;2.90;;;;;;;20.50;81.61;98126.84;4923248;28;105173;-60
2021/08/01 09:30:51;;;;;;;3.15;2.78;;;;;;;20.02;83.13;98133.56;4942363;28;102754;-60
2021/08/01 09:33:33;;;;;;;3.90;3.10;;;;;;;20.19;81.84;98132.38;4941010;28;102603;-63
2021/08/01 09:36:10;;;;;;;4.05;3.35;;;;;;;19.80;84.12;98138.97;4938899;28;103280;-62
2021/08/01 09:38:51;;;;;;;4.03;2.83;;;;;;;19.88;83.60;98139.75;4931326;28;103130;-60
2021/08/01 09:41:22;;;;;;;5.30;2.85;;;;;;;19.92;83.90;98143.72;4922106;28;103297;-61
2021/08/01 09:43:51;;;;;;;3.22;2.90;;;;;;;19.70;84.08;98141.94;4944818;28;102622;-60
2021/08/01 09:46:21;;;;;;;3.50;3.20;;;;;;;19.61;85.25;98143.03;4937116;28;103612;-60
2021/08/01 09:49:13;;;;;;;3.55;3.00;;;;;;;19.70;84.83;98135.75;4923685;28;103118;-60
2021/08/01 09:51:41;;;;;;;4.05;2.95;;;;;;;19.45;86.74;98133.25;4939016;28;102991;-60
2021/08/01 09:54:10;;;;;;;3.92;3.45;;;;;;;19.53;86.79;98135.06;4940832;28;102791;-59
2021/08/01 09:56:38;;;;;;;3.17;2.70;;;;;;;19.61;86.64;98132.31;4942348;28;104030;-60
2021/08/01 09:59:19;;;;;;;3.42;3.03;;;;;;;19.95;86.25;98129.97;4941605;28;103771;-59
2021/08/01 10:01:51;;;;;;;3.85;3.42;;;;;;;20.08;84.72;98130.16;4942191;28;102694;-58
2021/08/01 10:04:26;;;;;;;3.65;3.10;;;;;;;20.41;83.62;98129.78;4924500;28;103050;-60
2021/08/01 10:07:05;;;;;;;3.85;3.38;;;;;;;20.29;82.61;98125.94;4940439;28;103384;-61
2021/08/01 10:09:35;;;;;;;3.70;3.08;;;;;;;20.49;81.70;98132.41;4940730;28;104265;-60
2021/08/01 10:12:04;;;;;;;3.67;3.03;;;;;;;20.61;80.23;98121.00;4940608;28;102616;-60
2021/08/01 10:14:33;;;;;;;4.38;3.08;;;;;;;20.10;81.00;98124.59;4941481;28;102974;-60
2021/08/01 10:17:02;;;;;;;5.50;3.00;;;;;;;20.66;79.44;98123.94;4925830;28;106154;-60
2021/08/01 10:19:32;;;;;;;2.97;2.60;;;;;;;20.73;78.12;98124.88;4941371;28;103362;-60
2021/08/01 10:22:02;;;;;;;3.95;2.97;;;;;;;20.58;78.69;98125.88;4944360;28;105267;-60
2021/08/01 16:59:50;;;;;;;1.40;1.30;;;;;;;21.29;63.83;98131.28;4946936;22;103601;-61
2021/08/01 17:02:39;;;;;;;1.63;1.13;;;;;;;21.28;63.19;98134.97;4953350;28;103241;-60
2021/08/01 17:05:17;;;;;;;1.73;1.35;;;;;;;21.05;63.83;98141.53;4937948;28;102609;-63
2021/08/01 17:07:56;;;;;;;2.85;1.35;;;;;;;21.08;63.96;98139.31;4939370;28;102799;-64
2021/08/01 17:10:28;;;;;;;1.20;1.10;;;;;;;21.24;64.17;98133.72;4956239;28;103519;-63
2021/08/01 17:12:59;;;;;;;1.30;1.20;;;;;;;21.45;62.76;98140.09;4955395;28;104671;-64
2021/08/01 17:15:30;;;;;;;1.60;1.50;;;;;;;21.27;62.55;98140.56;4955658;28;102973;-63
2021/08/01 17:17:58;;;;;;;1.98;1.30;;;;;;;21.29;62.49;98136.66;4954553;28;102746;-65
2021/08/01 17:20:27;;;;;;;1.58;1.30;;;;;;;21.31;63.33;98144.50;4955128;28;103368;-64
2021/08/01 17:22:56;;;;;;;2.80;1.65;;;;;;;21.28;62.76;98144.88;4936873;28;103679;-64
2021/08/01 17:25:27;;;;;;;1.58;1.30;;;;;;;21.39;63.24;98155.97;4956645;28;102692;-64
2021/08/01 17:27:55;;;;;;;2.05;1.27;;;;;;;21.53;62.47;98158.78;4955485;28;103080;-64
2021/08/01 17:30:23;;;;;;;2.72;1.52;;;;;;;21.62;62.46;98165.69;4956370;28;104380;-61
2021/08/01 17:32:59;;;;;;;2.25;1.10;;;;;;;21.56;62.25;98158.41;4956555;28;103094;-60
2021/08/01 17:35:30;;;;;;;1.60;1.30;;;;;;;21.54;61.80;98157.75;4956111;28;102723;-61
2021/08/01 17:38:01;;;;;;;6.05;1.40;;;;;;;21.22;62.21;98162.59;4956825;28;102789;-62
2021/08/01 17:40:30;;;;;;;2.65;1.40;;;;;;;21.24;62.63;98157.91;4955612;28;103200;-63
2021/08/01 17:43:00;;;;;;;1.55;1.17;;;;;;;21.39;62.17;98161.34;4956483;28;103849;-64
2021/08/01 17:45:30;;;;;;;1.30;1.20;;;;;;;21.50;61.78;98167.25;4957003;28;102735;-63
2021/08/01 17:47:59;;;;;;;1.30;1.20;;;;;;;21.30;61.80;98175.09;4958038;28;102604;-63
2021/08/01 17:50:29;;;;;;;1.85;1.30;;;;;;;21.34;62.24;98165.63;4955554;28;103498;-63
2021/08/01 17:52:57;;;;;;;1.40;1.23;;;;;;;21.24;62.29;98176.69;4956470;28;103460;-61
2021/08/01 17:55:26;;;;;;;1.30;1.17;;;;;;;20.94;63.15;98169.69;4956777;28;102665;-61
2021/08/01 17:57:55;;;;;;;2.00;1.15;;;;;;;21.11;63.12;98175.72;4955762;28;102639;-60
2021/08/01 18:00:25;;;;;;;2.65;1.38;;;;;;;20.75;64.12;98170.28;4952557;28;103398;-60
2021/08/01 18:02:54;;;;;;;3.40;1.85;;;;;;;20.38;66.33;98181.16;4938355;28;103273;-61
2021/08/01 18:05:25;;;;;;;1.80;1.50;;;;;;;20.45;66.11;98179.38;4955640;28;102809;-60
2021/08/01 18:08:05;;;;;;;3.05;1.50;;;;;;;20.29;66.22;98182.25;4955173;28;102652;-59
2021/08/01 18:10:45;;;;;;;1.58;1.40;;;;;;;20.48;66.38;98179.03;4916517;28;105227;-62
2021/08/01 18:13:17;;;;;;;2.50;1.98;;;;;;;20.40;66.40;98177.28;4939930;28;103149;-63
2021/08/01 18:15:54;;;;;;;2.50;1.55;;;;;;;20.48;66.86;98187.06;4958071;28;102621;-62
2021/08/01 18:18:24;;;;;;;1.67;1.48;;;;;;;20.39;67.36;98189.00;4955496;28;102780;-61
2021/08/01 18:21:02;;;;;;;2.88;1.58;;;;;;;20.40;67.90;98187.16;4953666;28;104445;-60
2021/08/01 18:23:33;;;;;;;2.65;1.67;;;;;;;20.41;68.16;98189.66;4955238;28;103156;-59
2021/08/01 18:26:02;;;;;;;1.63;1.45;;;;;;;20.27;67.40;98190.47;4958271;28;104630;-59
2021/08/01 18:28:31;;;;;;;1.30;1.20;;;;;;;20.15;68.33;98184.69;4956687;28;102763;-59
2021/08/01 18:31:00;;;;;;;1.40;1.20;;;;;;;19.58;69.62;98186.25;4955569;28;103363;-62
2021/08/01 18:33:29;;;;;;;2.55;1.50;;;;;;;19.72;69.67;98185.47;4938587;28;104481;-62
2021/08/01 18:36:00;;;;;;;1.48;1.10;;;;;;;19.68;69.86;98194.84;4956186;28;103878;-62
2021/08/01 18:38:28;;;;;;;3.88;1.60;;;;;;;19.66;69.93;98191.53;4957067;28;102787;-63
2021/08/01 18:41:02;;;;;;;1.50;1.40;;;;;;;19.68;69.50;98193.00;4957002;28;103381;-63
2021/08/01 18:43:32;;;;;;;2.08;1.50;;;;;;;19.75;69.98;98190.47;4955758;28;103241;-63
2021/08/01 18:46:01;;;;;;;3.05;1.50;;;;;;;19.34;70.83;98205.97;4939796;28;103160;-61
2021/08/01 18:48:31;;;;;;;2.08;1.48;;;;;;;19.39;70.45;98209.00;4952685;28;102819;-62
2021/08/01 18:51:01;;;;;;;1.30;1.20;;;;;;;19.44;70.32;98208.44;4952313;28;104482;-62
2021/08/01 18:53:33;;;;;;;2.65;1.30;;;;;;;19.18;71.09;98215.94;4955205;28;103244;-60
2021/08/01 18:56:04;;;;;;;2.00;1.55;;;;;;;19.15;71.41;98216.28;4956902;28;102614;-60
2021/08/01 18:58:33;;;;;;;2.10;1.40;;;;;;;19.10;72.07;98215.00;4954748;28;102732;-60
2021/08/01 19:01:04;;;;;;;1.92;1.55;;;;;;;19.18;72.11;98222.13;4939810;28;103245;-62
2021/08/01 19:03:33;;;;;;;2.15;1.40;;;;;;;19.24;71.52;98221.44;4957282;28;103385;-61
2021/08/01 19:06:05;;;;;;;1.80;1.35;;;;;;;19.18;71.63;98229.31;4957977;28;102704;-62
2021/08/01 19:08:35;;;;;;;2.72;1.65;;;;;;;19.06;72.22;98229.72;4958161;28;102668;-60
2021/08/01 19:11:03;;;;;;;2.38;1.45;;;;;;;19.02;72.99;98233.78;4959276;28;103389;-60
2021/08/01 19:13:32;;;;;;;1.95;1.35;;;;;;;19.04;72.71;98234.44;4959579;28;103277;-59
2021/08/01 19:16:14;;;;;;;2.78;1.80;;;;;;;18.86;73.89;98239.19;4959221;28;102680;-59
2021/08/01 19:18:52;;;;;;;4.20;1.80;;;;;;;18.81;74.05;98244.22;4938535;28;103186;-59
2021/08/01 19:21:23;;;;;;;1.40;1.30;;;;;;;18.91;74.04;98244.88;4956378;28;103416;-59
2021/08/01 19:23:57;;;;;;;2.85;1.52;;;;;;;18.75;74.77;98241.44;4935568;28;103391;-60
2021/08/01 19:26:27;;;;;;;2.75;1.88;;;;;;;18.79;74.71;98246.25;4959804;28;102803;-60
2021/08/01 19:28:59;;;;;;;1.40;1.30;;;;;;;18.80;74.44;98245.25;4942014;28;102721;-60
2021/08/01 19:31:33;;;;;;;1.40;1.30;;;;;;;18.83;74.47;98255.63;4959564;28;103828;-60
2021/08/01 19:34:17;;;;;;;2.17;1.30;;;;;;;18.83;74.62;98252.94;4955712;28;103407;-60
2021/08/01 19:36:48;;;;;;;2.78;1.67;;;;;;;18.64;75.30;98261.34;4957774;28;102604;-60
2021/08/01 19:39:20;;;;;;;4.93;1.88;;;;;;;18.61;75.65;98266.22;4941532;28;102894;-62
2021/08/01 19:41:50;;;;;;;1.40;1.30;;;;;;;18.70;75.52;98267.84;4944280;28;104539;-62
2021/08/01 19:44:19;;;;;;;3.88;2.00;;;;;;;18.61;76.00;98271.56;4962919;28;103026;-62
2021/08/01 19:46:50;;;;;;;2.42;1.33;;;;;;;18.65;75.44;98273.72;4953082;28;102961;-62
2021/08/01 19:49:20;;;;;;;1.85;1.52;;;;;;;18.71;75.10;98273.03;4952814;28;103159;-62
2021/08/01 19:51:51;;;;;;;1.35;1.25;;;;;;;18.68;75.43;98276.06;4962816;28;103295;-62
2021/08/01 19:54:22;;;;;;;1.42;1.10;;;;;;;18.74;75.45;98283.41;4961536;28;103234;-62
2021/08/01 19:56:51;;;;;;;1.40;1.30;;;;;;;18.70;75.81;98282.06;4963087;28;103034;-62
2021/08/01 19:59:22;;;;;;;1.60;1.50;;;;;;;18.65;76.80;98284.44;4950129;28;102648;-62
2021/08/01 20:01:51;;;;;;;2.95;1.38;;;;;;;18.64;76.76;98285.41;4960345;28;103362;-62
2021/08/01 20:04:20;;;;;;;3.00;1.38;;;;;;;18.62;76.51;98283.94;4962153;28;104376;-62
2021/08/01 20:06:50;;;;;;;1.60;1.40;;;;;;;18.62;77.33;98287.44;4964354;28;102698;-62
2021/08/01 20:09:18;;;;;;;3.83;2.13;;;;;;;18.56;77.67;98285.44;4963087;28;102969;-62
2021/08/01 20:11:46;;;;;;;1.48;1.38;;;;;;;18.53;77.70;98280.44;4961345;28;103182;-62
2021/08/01 20:14:15;;;;;;;2.97;2.00;;;;;;;18.59;77.41;98278.91;4962756;28;103030;-62
2021/08/01 20:16:43;;;;;;;2.63;1.85;;;;;;;18.49;78.60;98284.47;4960960;28;102978;-61
2021/08/01 20:19:11;;;;;;;1.80;1.70;;;;;;;18.44;78.43;98286.78;4963023;28;102691;-62
2021/08/01 20:21:39;;;;;;;2.20;1.63;;;;;;;18.19;78.37;98290.50;4959684;28;103557;-63
2021/08/01 20:24:09;;;;;;;2.65;1.80;;;;;;;18.23;77.48;98294.50;4963595;28;103146;-63
2021/08/01 20:26:38;;;;;;;2.15;1.40;;;;;;;18.25;77.08;98292.47;4962756;28;102913;-62
2021/08/01 20:29:06;;;;;;;1.60;1.50;;;;;;;18.13;76.46;98292.00;4966946;28;102805;-62
2021/08/01 20:31:34;;;;;;;2.22;1.45;;;;;;;18.12;76.20;98302.84;4962867;28;103408;-62
2021/08/01 20:34:04;;;;;;;2.70;1.75;;;;;;;18.11;76.13;98299.34;4962484;28;103320;-63
2021/08/01 20:36:33;;;;;;;2.45;1.52;;;;;;;17.98;75.91;98296.34;4962262;28;102576;-62
2021/08/01 20:39:01;;;;;;;1.60;1.40;;;;;;;18.05;75.70;98291.19;4963590;28;102828;-63
2021/08/01 20:41:31;;;;;;;1.50;1.40;;;;;;;18.09;75.19;98297.84;4943705;28;103285;-62
2021/08/01 20:43:59;;;;;;;2.63;1.77;;;;;;;17.95;74.72;98294.84;4941632;28;103514;-62
2021/08/01 20:46:28;;;;;;;1.70;1.50;;;;;;;17.88;75.09;98296.50;4963146;28;102563;-62
2021/08/01 20:48:57;;;;;;;2.15;1.42;;;;;;;17.95;75.13;98299.34;4940487;28;103334;-62
2021/08/01 20:51:25;;;;;;;1.92;1.73;;;;;;;17.79;75.39;98296.69;4961829;28;104399;-62
2021/08/01 20:53:53;;;;;;;3.05;2.05;;;;;;;17.68;76.00;98295.16;4944297;28;103079;-62
2021/08/01 20:56:23;;;;;;;3.08;1.70;;;;;;;17.80;75.78;98301.84;4938242;28;102763;-62
2021/08/01 20:58:54;;;;;;;2.65;1.88;;;;;;;17.72;75.60;98306.34;4936706;28;102745;-63
2021/08/01 21:01:23;;;;;;;2.13;1.50;;;;;;;17.76;75.88;98297.84;4938727;28;103233;-63
2021/08/01 21:03:51;;;;;;;1.83;1.40;;;;;;;17.82;75.55;98307.84;4942361;28;103129;-63
2021/08/01 21:06:19;;;;;;;2.10;1.85;;;;;;;17.80;75.29;98309.84;4941837;28;102638;-61
2021/08/01 21:08:47;;;;;;;1.70;1.60;;;;;;;17.80;75.34;98307.19;4942040;28;102828;-61
2021/08/01 21:11:16;;;;;;;2.38;1.60;;;;;;;17.73;75.49;98314.19;4903624;28;103606;-61
2021/08/01 21:13:45;;;;;;;2.70;2.00;;;;;;;17.69;75.61;98312.84;4940682;28;104194;-61
2021/08/01 21:16:14;;;;;;;2.45;1.50;;;;;;;17.68;75.81;98313.88;4941382;28;102608;-61
2021/08/01 21:18:43;;;;;;;1.85;1.75;;;;;;;17.53;76.04;98320.81;4941360;28;103192;-62
2021/08/01 21:21:11;;;;;;;3.85;1.85;;;;;;;17.65;75.48;98314.19;4926029;28;104873;-61
2021/08/01 21:23:39;;;;;;;1.50;1.40;;;;;;;17.64;75.73;98319.69;4930653;28;104631;-61
2021/08/01 21:26:07;;;;;;;2.30;1.30;;;;;;;17.65;75.70;98316.88;4940388;28;102641;-62
2021/08/01 21:28:36;;;;;;;2.00;1.65;;;;;;;17.64;75.81;98317.84;4941143;28;102981;-61
2021/08/01 21:31:04;;;;;;;2.33;1.50;;;;;;;17.61;75.87;98326.19;4925086;28;106575;-61
2021/08/01 21:33:33;;;;;;;5.07;1.70;;;;;;;17.66;75.73;98323.84;4931816;28;103856;-60
2021/08/01 21:36:01;;;;;;;2.22;1.60;;;;;;;17.65;75.77;98327.56;4940764;28;102677;-61
2021/08/01 21:38:30;;;;;;;2.10;1.80;;;;;;;17.68;75.90;98332.56;4941852;28;102747;-61
2021/08/01 21:40:58;;;;;;;3.58;1.60;;;;;;;17.70;75.75;98333.22;4932663;28;109044;-61
2021/08/01 21:43:26;;;;;;;3.25;2.15;;;;;;;17.54;76.10;98346.56;4938153;28;103215;-61
2021/08/01 21:45:54;;;;;;;2.63;2.42;;;;;;;17.02;79.44;98374.31;4943420;28;102609;-61
2021/08/01 21:48:23;;;;;;;2.88;2.17;;;;;;;16.48;82.85;98378.13;4942206;28;103017;-61
2021/08/01 21:50:52;;;;;;;3.38;2.10;;;;;;;16.50;83.22;98377.00;4940930;28;103389;-61
2021/08/01 21:53:20;;;;;;;2.55;2.00;;;;;;;16.44;83.25;98379.44;4947869;28;104370;-61
2021/08/01 21:55:50;;;;;;;2.72;2.15;;;;;;;16.30;83.87;98385.31;4929182;28;102691;-61
2021/08/01 21:58:19;;;;;;;2.60;2.10;;;;;;;16.41;83.34;98377.91;4940213;28;104951;-61
2021/08/01 22:00:50;;;;;;;2.08;1.98;;;;;;;16.60;82.48;98388.41;4923564;28;103648;-61
2021/08/01 22:03:20;;;;;;;2.90;2.00;;;;;;;16.80;81.09;98389.88;4939848;28;103467;-61
2021/08/01 22:05:56;;;;;;;2.08;1.60;;;;;;;17.02;80.13;98398.34;4940457;28;102554;-61
2021/08/01 22:08:25;;;;;;;2.13;1.92;;;;;;;17.08;79.80;98395.03;4940213;28;102659;-61
2021/08/01 22:10:53;;;;;;;2.85;1.60;;;;;;;17.20;79.34;98388.44;4941835;28;103309;-61
2021/08/01 22:13:23;;;;;;;2.65;1.83;;;;;;;17.23;79.02;98396.97;4940512;28;103598;-61
2021/08/01 22:15:52;;;;;;;1.70;1.60;;;;;;;17.33;78.82;98399.50;4939461;28;102615;-61
2021/08/01 22:18:20;;;;;;;2.00;1.67;;;;;;;17.37;79.03;98395.53;4946189;28;102691;-61
2021/08/01 22:20:49;;;;;;;1.48;1.38;;;;;;;17.43;78.24;98391.38;4938730;28;103317;-60
2021/08/01 22:23:18;;;;;;;1.70;1.60;;;;;;;17.47;78.31;98398.06;4922262;28;103077;-60
2021/08/01 22:25:50;;;;;;;3.33;2.20;;;;;;;17.40;78.48;98397.88;4943925;28;102629;-60
2021/08/01 22:28:22;;;;;;;2.97;1.80;;;;;;;17.38;78.15;98398.03;4943153;28;102778;-61
2021/08/01 22:30:54;;;;;;;1.55;1.45;;;;;;;17.47;77.82;98400.72;4923152;28;103876;-61
2021/08/01 22:33:23;;;;;;;1.50;1.40;;;;;;;17.53;78.30;98403.59;4936380;28;103327;-60
2021/08/01 22:35:54;;;;;;;2.10;1.40;;;;;;;17.56;78.20;98402.47;4939122;28;102595;-61
2021/08/01 22:38:25;;;;;;;2.45;1.50;;;;;;;17.57;78.80;98402.28;4942425;28;102589;-61
2021/08/01 22:40:54;;;;;;;1.85;1.73;;;;;;;17.28;80.67;98397.34;4938924;28;103343;-61
2021/08/01 22:43:23;;;;;;;2.45;1.50;;;;;;;17.27;79.87;98397.47;4938120;28;104379;-61
2021/08/01 22:45:52;;;;;;;1.52;1.42;;;;;;;17.33;79.70;98399.50;4942932;28;102565;-61
2021/08/01 22:48:20;;;;;;;1.67;1.50;;;;;;;17.27;79.72;98397.47;4939489;28;102747;-61
2021/08/01 22:50:50;;;;;;;1.40;1.30;;;;;;;17.30;79.68;98394.47;4938227;28;103428;-62
2021/08/01 22:53:19;;;;;;;1.45;1.35;;;;;;;17.32;79.83;98397.81;4923387;28;103210;-60
2021/08/01 22:55:49;;;;;;;2.22;1.73;;;;;;;17.33;79.46;98391.50;4924615;28;102627;-61
2021/08/01 22:58:17;;;;;;;1.60;1.50;;;;;;;17.35;79.24;98395.66;4949466;28;102624;-66
2021/08/01 23:00:48;;;;;;;1.40;1.30;;;;;;;17.38;78.90;98392.69;4942298;28;104038;-68
2021/08/01 23:03:20;;;;;;;2.05;1.83;;;;;;;17.37;79.12;98388.34;4941299;28;103197;-61
2021/08/01 23:05:52;;;;;;;2.00;1.67;;;;;;;17.31;79.31;98396.16;4957464;28;102594;-60
2021/08/01 23:08:26;;;;;;;2.10;1.70;;;;;;;17.25;79.90;98383.44;4941704;28;102839;-60
2021/08/01 23:11:00;;;;;;;1.50;1.40;;;;;;;17.25;79.93;98383.44;4957009;28;103397;-60
2021/08/01 23:13:38;;;;;;;2.50;2.00;;;;;;;17.14;79.85;98387.25;4962098;28;103229;-61
2021/08/01 23:16:11;;;;;;;2.10;1.88;;;;;;;17.05;80.24;98382.03;4961993;28;102704;-61
2021/08/01 23:18:46;;;;;;;2.63;2.08;;;;;;;17.09;79.76;98378.88;4961447;28;102592;-61
2021/08/01 23:21:16;;;;;;;2.33;1.60;;;;;;;17.14;79.81;98378.41;4944381;28;103179;-61
2021/08/01 23:23:54;;;;;;;1.75;1.50;;;;;;;17.18;79.69;98377.06;4944811;28;103229;-61
2021/08/01 23:26:25;;;;;;;2.10;1.42;;;;;;;17.20;79.29;98385.78;4961159;28;102690;-62
2021/08/01 23:28:53;;;;;;;1.42;1.33;;;;;;;17.25;79.14;98383.44;4942813;28;102766;-61
2021/08/01 23:31:21;;;;;;;1.60;1.50;;;;;;;17.24;79.67;98384.44;4962302;28;103294;-61
2021/08/01 23:33:50;;;;;;;1.27;1.17;;;;;;;17.29;79.08;98387.50;4961622;28;103155;-61
2021/08/01 23:36:20;;;;;;;2.40;1.77;;;;;;;17.33;79.24;98386.16;4965270;28;102708;-59
2021/08/01 23:38:53;;;;;;;2.05;1.75;;;;;;;17.31;79.49;98383.66;4943939;28;103147;-61
2021/08/01 23:41:25;;;;;;;2.45;1.40;;;;;;;17.34;79.28;98379.81;4962519;28;103389;-61
2021/08/01 23:43:54;;;;;;;1.65;1.55;;;;;;;17.32;80.10;98384.47;4943643;28;103384;-60
2021/08/01 23:46:22;;;;;;;1.92;1.55;;;;;;;17.32;80.07;98376.47;4962451;28;102664;-62
2021/08/01 23:48:51;;;;;;;2.05;1.60;;;;;;;17.33;79.70;98370.13;4963244;28;103960;-61